sensor_id;sensor_type;location;lat;lon;timestamp;pressure;altitude;pressure_sealevel;temperature
55038;BMP280;40937;53.594;10.034;2023-04-07T00:00:29;101930.78;;;7.12
55038;BMP280;40937;53.594;10.034;2023-04-07T00:02:56;101939.63;;;7.11
55038;BMP280;40937;53.594;10.034;2023-04-07T00:05:23;101929.84;;;7.04
55038;BMP280;40937;53.594;10.034;2023-04-07T00:07:51;101933.44;;;7.03
55038;BMP280;40937;53.594;10.034;2023-04-07T00:10:18;101926.09;;;6.99
55038;BMP280;40937;53.594;10.034;2023-04-07T00:12:45;101931.34;;;6.99
55038;BMP280;40937;53.594;10.034;2023-04-07T00:15:14;101928.78;;;6.91
55038;BMP280;40937;53.594;10.034;2023-04-07T00:17:41;101922.75;;;6.90
55038;BMP280;40937;53.594;10.034;2023-04-07T00:20:09;101928.97;;;6.89
55038;BMP280;40937;53.594;10.034;2023-04-07T00:22:36;101929.31;;;6.86
55038;BMP280;40937;53.594;10.034;2023-04-07T00:25:04;101934.72;;;6.84
55038;BMP280;40937;53.594;10.034;2023-04-07T00:27:31;101927.72;;;6.77
55038;BMP280;40937;53.594;10.034;2023-04-07T00:29:59;101926.13;;;6.76
55038;BMP280;40937;53.594;10.034;2023-04-07T00:32:27;101929.72;;;6.75
55038;BMP280;40937;53.594;10.034;2023-04-07T00:34:54;101932.97;;;6.77
55038;BMP280;40937;53.594;10.034;2023-04-07T00:37:22;101929.72;;;6.75
55038;BMP280;40937;53.594;10.034;2023-04-07T00:39:51;101929.59;;;6.68
55038;BMP280;40937;53.594;10.034;2023-04-07T00:42:18;101934.84;;;6.68
55038;BMP280;40937;53.594;10.034;2023-04-07T00:44:46;101926.47;;;6.73
55038;BMP280;40937;53.594;10.034;2023-04-07T00:47:14;101927.13;;;6.66
55038;BMP280;40937;53.594;10.034;2023-04-07T00:49:42;101922.28;;;6.55
55038;BMP280;40937;53.594;10.034;2023-04-07T00:52:11;101929.50;;;6.53
55038;BMP280;40937;53.594;10.034;2023-04-07T00:54:39;101932.47;;;6.50
55038;BMP280;40937;53.594;10.034;2023-04-07T00:57:08;101931.16;;;6.54
55038;BMP280;40937;53.594;10.034;2023-04-07T00:59:35;101928.88;;;6.51
55038;BMP280;40937;53.594;10.034;2023-04-07T01:02:07;101925.59;;;6.49
55038;BMP280;40937;53.594;10.034;2023-04-07T01:04:45;101920.56;;;6.39
55038;BMP280;40937;53.594;10.034;2023-04-07T01:07:17;101921.03;;;6.43
55038;BMP280;40937;53.594;10.034;2023-04-07T01:09:57;101917.09;;;6.47
55038;BMP280;40937;53.594;10.034;2023-04-07T01:12:37;101922.34;;;6.47
55038;BMP280;40937;53.594;10.034;2023-04-07T01:15:06;101931.50;;;6.43
55038;BMP280;40937;53.594;10.034;2023-04-07T01:17:42;101919.75;;;6.39
55038;BMP280;40937;53.594;10.034;2023-04-07T01:20:16;101918.13;;;6.38
55038;BMP280;40937;53.594;10.034;2023-04-07T01:22:46;101921.72;;;6.37
55038;BMP280;40937;53.594;10.034;2023-04-07T01:25:26;101929.44;;;6.38
55038;BMP280;40937;53.594;10.034;2023-04-07T01:28:09;101914.56;;;6.31
55038;BMP280;40937;53.594;10.034;2023-04-07T01:30:42;101916.75;;;6.19
55038;BMP280;40937;53.594;10.034;2023-04-07T01:33:11;101925.06;;;6.22
55038;BMP280;40937;53.594;10.034;2023-04-07T01:35:40;101922.47;;;6.22
55038;BMP280;40937;53.594;10.034;2023-04-07T01:38:08;101930.66;;;6.19
55038;BMP280;40937;53.594;10.034;2023-04-07T01:40:37;101916.28;;;6.07
55038;BMP280;40937;53.594;10.034;2023-04-07T01:43:06;101926.44;;;6.10
55038;BMP280;40937;53.594;10.034;2023-04-07T01:45:34;101925.16;;;6.06
55038;BMP280;40937;53.594;10.034;2023-04-07T01:48:06;101923.84;;;6.02
55038;BMP280;40937;53.594;10.034;2023-04-07T01:50:33;101923.50;;;6.05
55038;BMP280;40937;53.594;10.034;2023-04-07T01:53:02;101924.31;;;6.05
55038;BMP280;40937;53.594;10.034;2023-04-07T01:55:31;101935.13;;;6.02
55038;BMP280;40937;53.594;10.034;2023-04-07T01:58:05;101929.44;;;5.90
55038;BMP280;40937;53.594;10.034;2023-04-07T02:00:34;101927.00;;;5.89
55038;BMP280;40937;53.594;10.034;2023-04-07T02:03:12;101926.50;;;5.94
55038;BMP280;40937;53.594;10.034;2023-04-07T02:05:46;101923.34;;;5.98
55038;BMP280;40937;53.594;10.034;2023-04-07T02:08:15;101926.16;;;5.97
55038;BMP280;40937;53.594;10.034;2023-04-07T02:10:46;101934.66;;;5.99
55038;BMP280;40937;53.594;10.034;2023-04-07T02:13:17;101933.69;;;5.92
55038;BMP280;40937;53.594;10.034;2023-04-07T02:15:49;101921.59;;;5.90
55038;BMP280;40937;53.594;10.034;2023-04-07T02:18:21;101932.41;;;5.87
55038;BMP280;40937;53.594;10.034;2023-04-07T02:20:50;101917.03;;;5.84
55038;BMP280;40937;53.594;10.034;2023-04-07T02:23:18;101929.09;;;5.85
55038;BMP280;40937;53.594;10.034;2023-04-07T02:25:45;101933.69;;;5.83
55038;BMP280;40937;53.594;10.034;2023-04-07T02:28:14;101925.84;;;5.83
55038;BMP280;40937;53.594;10.034;2023-04-07T02:30:44;101938.28;;;5.81
55038;BMP280;40937;53.594;10.034;2023-04-07T02:33:11;101942.38;;;5.84
55038;BMP280;40937;53.594;10.034;2023-04-07T02:35:39;101941.56;;;5.83
55038;BMP280;40937;53.594;10.034;2023-04-07T02:38:07;101934.66;;;5.82
55038;BMP280;40937;53.594;10.034;2023-04-07T02:40:35;101933.41;;;5.78
55038;BMP280;40937;53.594;10.034;2023-04-07T02:43:02;101949.28;;;5.77
55038;BMP280;40937;53.594;10.034;2023-04-07T02:45:30;101947.00;;;5.74
55038;BMP280;40937;53.594;10.034;2023-04-07T02:47:57;101945.66;;;5.69
55038;BMP280;40937;53.594;10.034;2023-04-07T02:50:24;101951.75;;;5.70
55038;BMP280;40937;53.594;10.034;2023-04-07T02:52:53;101952.41;;;5.72
55038;BMP280;40937;53.594;10.034;2023-04-07T02:55:21;101950.09;;;5.69
55038;BMP280;40937;53.594;10.034;2023-04-07T02:57:50;101957.31;;;5.67
55038;BMP280;40937;53.594;10.034;2023-04-07T03:00:35;101952.59;;;5.62
55038;BMP280;40937;53.594;10.034;2023-04-07T03:03:08;101958.16;;;5.59
55038;BMP280;40937;53.594;10.034;2023-04-07T03:05:38;101953.41;;;5.55
55038;BMP280;40937;53.594;10.034;2023-04-07T03:08:12;101966.97;;;5.58
55038;BMP280;40937;53.594;10.034;2023-04-07T03:10:40;101954.69;;;5.59
55038;BMP280;40937;53.594;10.034;2023-04-07T03:13:08;101956.34;;;5.60
55038;BMP280;40937;53.594;10.034;2023-04-07T03:15:37;101951.09;;;5.60
55038;BMP280;40937;53.594;10.034;2023-04-07T03:18:06;101953.88;;;5.58
55038;BMP280;40937;53.594;10.034;2023-04-07T03:20:34;101952.75;;;5.61
55038;BMP280;40937;53.594;10.034;2023-04-07T03:23:07;101962.06;;;5.63
55038;BMP280;40937;53.594;10.034;2023-04-07T03:25:36;101952.91;;;5.59
55038;BMP280;40937;53.594;10.034;2023-04-07T03:28:03;101963.53;;;5.58
55038;BMP280;40937;53.594;10.034;2023-04-07T03:30:34;101953.72;;;5.60
55038;BMP280;40937;53.594;10.034;2023-04-07T03:33:01;101959.94;;;5.59
55038;BMP280;40937;53.594;10.034;2023-04-07T03:35:31;101955.69;;;5.58
55038;BMP280;40937;53.594;10.034;2023-04-07T03:37:58;101961.09;;;5.56
55038;BMP280;40937;53.594;10.034;2023-04-07T03:40:26;101962.22;;;5.53
55038;BMP280;40937;53.594;10.034;2023-04-07T03:42:54;101965.81;;;5.52
55038;BMP280;40937;53.594;10.034;2023-04-07T03:45:22;101966.66;;;5.53
55038;BMP280;40937;53.594;10.034;2023-04-07T03:47:51;101974.66;;;5.51
55038;BMP280;40937;53.594;10.034;2023-04-07T03:50:22;101965.34;;;5.49
55038;BMP280;40937;53.594;10.034;2023-04-07T03:53:00;101974.16;;;5.48
55038;BMP280;40937;53.594;10.034;2023-04-07T03:55:30;101977.63;;;5.48
55038;BMP280;40937;53.594;10.034;2023-04-07T03:58:05;101971.72;;;5.46
55038;BMP280;40937;53.594;10.034;2023-04-07T04:00:35;101980.56;;;5.45
55038;BMP280;40937;53.594;10.034;2023-04-07T04:03:11;101977.78;;;5.47
55038;BMP280;40937;53.594;10.034;2023-04-07T04:05:48;101979.25;;;5.41
55038;BMP280;40937;53.594;10.034;2023-04-07T04:08:20;101978.75;;;5.38
55038;BMP280;40937;53.594;10.034;2023-04-07T04:10:48;101976.28;;;5.36
55038;BMP280;40937;53.594;10.034;2023-04-07T04:13:17;101983.47;;;5.34
55038;BMP280;40937;53.594;10.034;2023-04-07T04:15:46;101983.47;;;5.34
55038;BMP280;40937;53.594;10.034;2023-04-07T04:18:15;101992.34;;;5.33
55038;BMP280;40937;53.594;10.034;2023-04-07T04:20:45;101984.13;;;5.28
55038;BMP280;40937;53.594;10.034;2023-04-07T04:23:14;101988.69;;;5.34
55038;BMP280;40937;53.594;10.034;2023-04-07T04:25:42;101991.50;;;5.32
55038;BMP280;40937;53.594;10.034;2023-04-07T04:28:11;101991.34;;;5.26
55038;BMP280;40937;53.594;10.034;2023-04-07T04:30:41;101999.19;;;5.26
55038;BMP280;40937;53.594;10.034;2023-04-07T04:33:08;101992.97;;;5.27
55038;BMP280;40937;53.594;10.034;2023-04-07T04:35:44;102001.63;;;5.27
55038;BMP280;40937;53.594;10.034;2023-04-07T04:38:15;102006.22;;;5.25
55038;BMP280;40937;53.594;10.034;2023-04-07T04:40:48;102005.34;;;5.17
55038;BMP280;40937;53.594;10.034;2023-04-07T04:43:18;102003.25;;;5.20
55038;BMP280;40937;53.594;10.034;2023-04-07T04:45:47;102005.53;;;5.15
55038;BMP280;40937;53.594;10.034;2023-04-07T04:48:16;102015.19;;;5.14
55038;BMP280;40937;53.594;10.034;2023-04-07T04:50:44;102012.59;;;5.14
55038;BMP280;40937;53.594;10.034;2023-04-07T04:53:13;102024.69;;;5.16
55038;BMP280;40937;53.594;10.034;2023-04-07T04:56:04;102022.09;;;5.16
55038;BMP280;40937;53.594;10.034;2023-04-07T04:58:44;102017.16;;;5.12
55038;BMP280;40937;53.594;10.034;2023-04-07T05:01:18;102021.72;;;5.10
55038;BMP280;40937;53.594;10.034;2023-04-07T05:04:03;102022.19;;;5.06
55038;BMP280;40937;53.594;10.034;2023-04-07T05:06:31;102025.28;;;5.01
55038;BMP280;40937;53.594;10.034;2023-04-07T05:09:04;102026.91;;;5.02
55038;BMP280;40937;53.594;10.034;2023-04-07T05:11:39;102027.72;;;5.03
55038;BMP280;40937;53.594;10.034;2023-04-07T05:14:07;102031.34;;;5.02
55038;BMP280;40937;53.594;10.034;2023-04-07T05:16:38;102037.69;;;4.99
55038;BMP280;40937;53.594;10.034;2023-04-07T05:19:06;102041.78;;;4.93
55038;BMP280;40937;53.594;10.034;2023-04-07T05:21:34;102049.75;;;4.92
55038;BMP280;40937;53.594;10.034;2023-04-07T05:24:03;102057.47;;;4.93
55038;BMP280;40937;53.594;10.034;2023-04-07T05:26:32;102050.59;;;4.92
55038;BMP280;40937;53.594;10.034;2023-04-07T05:29:03;102057.63;;;4.92
55038;BMP280;40937;53.594;10.034;2023-04-07T05:31:30;102058.06;;;4.87
55038;BMP280;40937;53.594;10.034;2023-04-07T05:34:00;102061.84;;;4.85
55038;BMP280;40937;53.594;10.034;2023-04-07T05:36:34;102051.88;;;4.88
55038;BMP280;40937;53.594;10.034;2023-04-07T05:39:01;102063.16;;;4.89
55038;BMP280;40937;53.594;10.034;2023-04-07T05:41:28;102075.56;;;4.87
55038;BMP280;40937;53.594;10.034;2023-04-07T05:43:56;102070.03;;;4.90
55038;BMP280;40937;53.594;10.034;2023-04-07T05:46:33;102080.50;;;4.90
55038;BMP280;40937;53.594;10.034;2023-04-07T05:49:02;102082.00;;;4.92
55038;BMP280;40937;53.594;10.034;2023-04-07T05:51:30;102084.69;;;4.83
55038;BMP280;40937;53.594;10.034;2023-04-07T05:54:02;102089.91;;;4.83
55038;BMP280;40937;53.594;10.034;2023-04-07T05:56:30;102089.59;;;4.86
55038;BMP280;40937;53.594;10.034;2023-04-07T06:02:36;102093.91;;;4.95
55038;BMP280;40937;53.594;10.034;2023-04-07T06:05:08;102103.56;;;4.94
55038;BMP280;40937;53.594;10.034;2023-04-07T06:07:37;102100.38;;;4.83
55038;BMP280;40937;53.594;10.034;2023-04-07T06:10:06;102095.47;;;4.80
55038;BMP280;40937;53.594;10.034;2023-04-07T06:12:34;102100.38;;;4.83
55038;BMP280;40937;53.594;10.034;2023-04-07T06:15:01;102101.72;;;4.87
55038;BMP280;40937;53.594;10.034;2023-04-07T06:17:29;102098.78;;;4.90
55038;BMP280;40937;53.594;10.034;2023-04-07T06:19:56;102106.03;;;4.96
55038;BMP280;40937;53.594;10.034;2023-04-07T06:22:24;102104.06;;;4.98
55038;BMP280;40937;53.594;10.034;2023-04-07T06:24:52;102116.16;;;4.99
55038;BMP280;40937;53.594;10.034;2023-04-07T06:27:20;102117.50;;;5.03
55038;BMP280;40937;53.594;10.034;2023-04-07T06:29:47;102117.53;;;5.11
55038;BMP280;40937;53.594;10.034;2023-04-07T06:32:15;102116.88;;;5.18
55038;BMP280;40937;53.594;10.034;2023-04-07T06:34:42;102122.47;;;5.23
55038;BMP280;40937;53.594;10.034;2023-04-07T06:37:09;102124.78;;;5.26
55038;BMP280;40937;53.594;10.034;2023-04-07T06:39:39;102124.31;;;5.30
55038;BMP280;40937;53.594;10.034;2023-04-07T06:42:06;102128.06;;;5.36
55038;BMP280;40937;53.594;10.034;2023-04-07T06:44:48;102135.13;;;5.44
55038;BMP280;40937;53.594;10.034;2023-04-07T06:47:17;102125.31;;;5.46
55038;BMP280;40937;53.594;10.034;2023-04-07T06:49:45;102127.63;;;5.49
55038;BMP280;40937;53.594;10.034;2023-04-07T06:52:13;102136.63;;;5.55
55038;BMP280;40937;53.594;10.034;2023-04-07T06:54:42;102137.63;;;5.62
55038;BMP280;40937;53.594;10.034;2023-04-07T06:57:21;102131.41;;;5.71
55038;BMP280;40937;53.594;10.034;2023-04-07T07:00:11;102130.78;;;5.77
55038;BMP280;40937;53.594;10.034;2023-04-07T07:02:49;102136.38;;;5.90
55038;BMP280;40937;53.594;10.034;2023-04-07T07:05:20;102131.63;;;5.94
55038;BMP280;40937;53.594;10.034;2023-04-07T07:07:48;102138.31;;;6.05
55038;BMP280;40937;53.594;10.034;2023-04-07T07:10:17;102143.91;;;6.18
55038;BMP280;40937;53.594;10.034;2023-04-07T07:12:45;102137.81;;;6.26
55038;BMP280;40937;53.594;10.034;2023-04-07T07:15:12;102140.13;;;6.37
55038;BMP280;40937;53.594;10.034;2023-04-07T07:17:40;102136.66;;;6.45
55038;BMP280;40937;53.594;10.034;2023-04-07T07:20:08;102145.13;;;6.55
55038;BMP280;40937;53.594;10.034;2023-04-07T07:22:36;102140.56;;;6.65
55038;BMP280;40937;53.594;10.034;2023-04-07T07:25:04;102137.25;;;6.72
55038;BMP280;40937;53.594;10.034;2023-04-07T07:27:33;102144.09;;;6.81
55038;BMP280;40937;53.594;10.034;2023-04-07T07:30:00;102150.81;;;6.92
55038;BMP280;40937;53.594;10.034;2023-04-07T07:32:27;102152.41;;;7.01
55038;BMP280;40937;53.594;10.034;2023-04-07T07:34:54;102147.91;;;7.10
55038;BMP280;40937;53.594;10.034;2023-04-07T07:37:22;102145.25;;;7.18
55038;BMP280;40937;53.594;10.034;2023-04-07T07:39:49;102154.75;;;7.27
55038;BMP280;40937;53.594;10.034;2023-04-07T07:42:16;102156.50;;;7.35
55038;BMP280;40937;53.594;10.034;2023-04-07T07:44:45;102159.88;;;7.43
55038;BMP280;40937;53.594;10.034;2023-04-07T07:47:12;102154.91;;;7.49
55038;BMP280;40937;53.594;10.034;2023-04-07T07:49:40;102155.69;;;7.57
55038;BMP280;40937;53.594;10.034;2023-04-07T07:52:07;102163.31;;;7.67
55038;BMP280;40937;53.594;10.034;2023-04-07T07:54:35;102164.94;;;7.76
55038;BMP280;40937;53.594;10.034;2023-04-07T07:57:03;102163.41;;;7.82
55038;BMP280;40937;53.594;10.034;2023-04-07T07:59:31;102168.75;;;7.89
55038;BMP280;40937;53.594;10.034;2023-04-07T08:01:59;102168.41;;;7.92
55038;BMP280;40937;53.594;10.034;2023-04-07T08:04:27;102169.72;;;7.96
55038;BMP280;40937;53.594;10.034;2023-04-07T08:06:54;102177.69;;;7.88
55038;BMP280;40937;53.594;10.034;2023-04-07T08:09:21;102178.75;;;7.93
55038;BMP280;40937;53.594;10.034;2023-04-07T08:11:49;102166.53;;;8.00
55038;BMP280;40937;53.594;10.034;2023-04-07T08:14:16;102181.28;;;8.10
55038;BMP280;40937;53.594;10.034;2023-04-07T08:16:44;102183.00;;;8.17
55038;BMP280;40937;53.594;10.034;2023-04-07T08:19:12;102181.28;;;8.25
55038;BMP280;40937;53.594;10.034;2023-04-07T08:21:40;102182.00;;;8.33
55038;BMP280;40937;53.594;10.034;2023-04-07T08:24:08;102181.94;;;8.42
55038;BMP280;40937;53.594;10.034;2023-04-07T08:26:35;102189.28;;;8.46
55038;BMP280;40937;53.594;10.034;2023-04-07T08:29:02;102189.38;;;8.53
55038;BMP280;40937;53.594;10.034;2023-04-07T08:31:30;102195.75;;;8.58
55038;BMP280;40937;53.594;10.034;2023-04-07T08:33:58;102190.56;;;8.65
55038;BMP280;40937;53.594;10.034;2023-04-07T08:36:31;102186.41;;;8.71
55038;BMP280;40937;53.594;10.034;2023-04-07T08:38:58;102190.75;;;8.79
55038;BMP280;40937;53.594;10.034;2023-04-07T08:41:30;102192.22;;;8.81
55038;BMP280;40937;53.594;10.034;2023-04-07T08:44:02;102192.84;;;8.83
55038;BMP280;40937;53.594;10.034;2023-04-07T08:46:42;102201.34;;;8.85
55038;BMP280;40937;53.594;10.034;2023-04-07T08:49:11;102189.03;;;8.86
55038;BMP280;40937;53.594;10.034;2023-04-07T08:51:45;102195.00;;;8.94
55038;BMP280;40937;53.594;10.034;2023-04-07T08:54:14;102204.00;;;9.00
55038;BMP280;40937;53.594;10.034;2023-04-07T08:56:44;102196.75;;;9.02
55038;BMP280;40937;53.594;10.034;2023-04-07T08:59:13;102193.19;;;9.10
55038;BMP280;40937;53.594;10.034;2023-04-07T09:01:43;102196.06;;;9.15
55038;BMP280;40937;53.594;10.034;2023-04-07T09:04:11;102201.03;;;9.25
55038;BMP280;40937;53.594;10.034;2023-04-07T09:06:42;102202.03;;;9.39
55038;BMP280;40937;53.594;10.034;2023-04-07T09:09:10;102198.19;;;9.41
55038;BMP280;40937;53.594;10.034;2023-04-07T09:11:38;102196.38;;;9.42
55038;BMP280;40937;53.594;10.034;2023-04-07T09:14:09;102204.34;;;9.48
55038;BMP280;40937;53.594;10.034;2023-04-07T09:16:36;102209.44;;;9.50
55038;BMP280;40937;53.594;10.034;2023-04-07T09:19:03;102198.31;;;9.54
55038;BMP280;40937;53.594;10.034;2023-04-07T09:21:49;102202.00;;;9.60
55038;BMP280;40937;53.594;10.034;2023-04-07T09:24:21;102198.63;;;9.66
55038;BMP280;40937;53.594;10.034;2023-04-07T09:26:49;102198.25;;;9.69
55038;BMP280;40937;53.594;10.034;2023-04-07T09:29:18;102197.88;;;9.72
55038;BMP280;40937;53.594;10.034;2023-04-07T09:31:47;102199.50;;;9.73
55038;BMP280;40937;53.594;10.034;2023-04-07T09:34:24;102199.16;;;9.77
55038;BMP280;40937;53.594;10.034;2023-04-07T09:36:53;102193.81;;;9.70
55038;BMP280;40937;53.594;10.034;2023-04-07T09:39:20;102197.88;;;9.72
55038;BMP280;40937;53.594;10.034;2023-04-07T09:41:47;102196.66;;;9.68
55038;BMP280;40937;53.594;10.034;2023-04-07T09:44:15;102192.88;;;9.78
55038;BMP280;40937;53.594;10.034;2023-04-07T09:46:50;102195.13;;;9.81
55038;BMP280;40937;53.594;10.034;2023-04-07T09:49:17;102176.94;;;9.86
55038;BMP280;40937;53.594;10.034;2023-04-07T13:01:19;102212.38;;;12.36
55038;BMP280;40937;53.594;10.034;2023-04-07T13:03:46;102217.44;;;12.44
55038;BMP280;40937;53.594;10.034;2023-04-07T13:06:14;102211.38;;;12.37
55038;BMP280;40937;53.594;10.034;2023-04-07T13:08:42;102206.25;;;12.42
55038;BMP280;40937;53.594;10.034;2023-04-07T13:11:09;102209.50;;;12.51
55038;BMP280;40937;53.594;10.034;2023-04-07T13:13:36;102206.38;;;12.67
55038;BMP280;40937;53.594;10.034;2023-04-07T13:16:04;102214.91;;;12.76
55038;BMP280;40937;53.594;10.034;2023-04-07T13:18:33;102208.78;;;12.82
55038;BMP280;40937;53.594;10.034;2023-04-07T13:21:00;102215.56;;;13.10
55038;BMP280;40937;53.594;10.034;2023-04-07T13:23:27;102211.38;;;13.21
55038;BMP280;40937;53.594;10.034;2023-04-07T13:25:54;102220.47;;;13.31
55038;BMP280;40937;53.594;10.034;2023-04-07T13:28:21;102217.75;;;13.45
55038;BMP280;40937;53.594;10.034;2023-04-07T13:30:49;102217.88;;;13.57
55038;BMP280;40937;53.594;10.034;2023-04-07T13:33:16;102218.84;;;13.62
55038;BMP280;40937;53.594;10.034;2023-04-07T13:35:45;102214.16;;;13.83
55038;BMP280;40937;53.594;10.034;2023-04-07T13:38:12;102212.16;;;13.78
55038;BMP280;40937;53.594;10.034;2023-04-07T13:40:39;102216.78;;;13.64
55038;BMP280;40937;53.594;10.034;2023-04-07T13:43:06;102211.22;;;13.73
55038;BMP280;40937;53.594;10.034;2023-04-07T13:45:38;102215.38;;;13.87
55038;BMP280;40937;53.594;10.034;2023-04-07T13:48:06;102219.47;;;13.83
55038;BMP280;40937;53.594;10.034;2023-04-07T13:50:35;102208.47;;;13.61
55038;BMP280;40937;53.594;10.034;2023-04-07T13:53:03;102212.69;;;13.68
55038;BMP280;40937;53.594;10.034;2023-04-07T13:55:31;102213.00;;;13.79
55038;BMP280;40937;53.594;10.034;2023-04-07T13:57:58;102214.09;;;13.46
55038;BMP280;40937;53.594;10.034;2023-04-07T14:00:26;102211.94;;;13.61
55038;BMP280;40937;53.594;10.034;2023-04-07T14:02:53;102202.38;;;13.79
55038;BMP280;40937;53.594;10.034;2023-04-07T14:05:22;102207.66;;;14.04
55038;BMP280;40937;53.594;10.034;2023-04-07T14:07:49;102198.94;;;13.97
55038;BMP280;40937;53.594;10.034;2023-04-07T14:10:18;102204.91;;;13.92
55038;BMP280;40937;53.594;10.034;2023-04-07T14:12:45;102203.81;;;14.00
55038;BMP280;40937;53.594;10.034;2023-04-07T14:15:13;102196.66;;;13.82
55038;BMP280;40937;53.594;10.034;2023-04-07T14:17:40;102210.44;;;13.40
55038;BMP280;40937;53.594;10.034;2023-04-07T14:20:08;102203.44;;;13.21
55038;BMP280;40937;53.594;10.034;2023-04-07T14:22:35;102207.59;;;13.42
55038;BMP280;40937;53.594;10.034;2023-04-07T14:25:03;102204.28;;;13.71
55038;BMP280;40937;53.594;10.034;2023-04-07T14:27:32;102203.13;;;13.86
55038;BMP280;40937;53.594;10.034;2023-04-07T14:29:59;102198.59;;;13.93
55038;BMP280;40937;53.594;10.034;2023-04-07T14:32:27;102209.44;;;13.66
55038;BMP280;40937;53.594;10.034;2023-04-07T14:34:55;102209.19;;;12.79
55038;BMP280;40937;53.594;10.034;2023-04-07T14:37:24;102221.53;;;12.47
55038;BMP280;40937;53.594;10.034;2023-04-07T14:39:53;102216.69;;;12.10
55038;BMP280;40937;53.594;10.034;2023-04-07T14:42:20;102207.78;;;11.78
55038;BMP280;40937;53.594;10.034;2023-04-07T14:44:49;102218.97;;;11.74
55038;BMP280;40937;53.594;10.034;2023-04-07T14:47:16;102217.50;;;11.51
55038;BMP280;40937;53.594;10.034;2023-04-07T14:49:43;102225.63;;;11.43
55038;BMP280;40937;53.594;10.034;2023-04-07T14:52:10;102231.72;;;11.37
55038;BMP280;40937;53.594;10.034;2023-04-07T14:54:39;102238.25;;;11.41
55038;BMP280;40937;53.594;10.034;2023-04-07T14:57:06;102243.88;;;11.24
55038;BMP280;40937;53.594;10.034;2023-04-07T14:59:33;102238.38;;;11.19
55038;BMP280;40937;53.594;10.034;2023-04-07T15:02:02;102243.38;;;10.94
55038;BMP280;40937;53.594;10.034;2023-04-07T15:04:29;102240.84;;;10.79
55038;BMP280;40937;53.594;10.034;2023-04-07T15:06:56;102251.22;;;10.81
55038;BMP280;40937;53.594;10.034;2023-04-07T15:09:24;102257.91;;;10.48
55038;BMP280;40937;53.594;10.034;2023-04-07T15:11:51;102260.31;;;10.43
55038;BMP280;40937;53.594;10.034;2023-04-07T15:14:18;102256.69;;;10.44
55038;BMP280;40937;53.594;10.034;2023-04-07T15:16:46;102264.50;;;10.31
55038;BMP280;40937;53.594;10.034;2023-04-07T15:19:16;102258.31;;;9.96
55038;BMP280;40937;53.594;10.034;2023-04-07T15:21:43;102253.59;;;9.91
55038;BMP280;40937;53.594;10.034;2023-04-07T15:24:11;102253.25;;;9.94
55038;BMP280;40937;53.594;10.034;2023-04-07T15:26:38;102261.66;;;10.04
55038;BMP280;40937;53.594;10.034;2023-04-07T15:29:05;102264.72;;;10.08
55038;BMP280;40937;53.594;10.034;2023-04-07T15:31:33;102261.22;;;9.79
55038;BMP280;40937;53.594;10.034;2023-04-07T15:34:00;102259.72;;;9.55
55038;BMP280;40937;53.594;10.034;2023-04-07T15:36:28;102259.09;;;9.53
55038;BMP280;40937;53.594;10.034;2023-04-07T15:38:56;102271.03;;;9.49
55038;BMP280;40937;53.594;10.034;2023-04-07T15:41:23;102270.88;;;9.35
55038;BMP280;40937;53.594;10.034;2023-04-07T15:43:50;102271.59;;;9.14
55038;BMP280;40937;53.594;10.034;2023-04-07T15:46:18;102266.97;;;9.16
55038;BMP280;40937;53.594;10.034;2023-04-07T15:48:47;102271.50;;;9.23
55038;BMP280;40937;53.594;10.034;2023-04-07T15:51:14;102277.16;;;9.20
55038;BMP280;40937;53.594;10.034;2023-04-07T15:53:43;102269.72;;;8.93
55038;BMP280;40937;53.594;10.034;2023-04-07T15:56:10;102277.88;;;8.99
55038;BMP280;40937;53.594;10.034;2023-04-07T15:58:37;102283.59;;;8.87
55038;BMP280;40937;53.594;10.034;2023-04-07T16:01:05;102284.41;;;8.73
55038;BMP280;40937;53.594;10.034;2023-04-07T16:03:32;102287.38;;;8.70
55038;BMP280;40937;53.594;10.034;2023-04-07T16:05:59;102280.16;;;8.72
55038;BMP280;40937;53.594;10.034;2023-04-07T16:08:27;102290.09;;;8.62
55038;BMP280;40937;53.594;10.034;2023-04-07T16:10:55;102288.25;;;8.47
55038;BMP280;40937;53.594;10.034;2023-04-07T16:13:22;102289.31;;;8.38
55038;BMP280;40937;53.594;10.034;2023-04-07T16:15:54;102288.25;;;8.47
55038;BMP280;40937;53.594;10.034;2023-04-07T16:18:21;102285.53;;;8.55
55038;BMP280;40937;53.594;10.034;2023-04-07T16:20:48;102296.78;;;8.49
55038;BMP280;40937;53.594;10.034;2023-04-07T16:23:15;102299.94;;;8.45
55038;BMP280;40937;53.594;10.034;2023-04-07T16:25:43;102294.31;;;8.25
55038;BMP280;40937;53.594;10.034;2023-04-07T16:28:11;102296.78;;;8.26
55038;BMP280;40937;53.594;10.034;2023-04-07T16:30:38;102297.28;;;8.30
55038;BMP280;40937;53.594;10.034;2023-04-07T16:33:06;102308.25;;;8.33
55038;BMP280;40937;53.594;10.034;2023-04-07T16:35:33;102311.06;;;8.09
55038;BMP280;40937;53.594;10.034;2023-04-07T16:38:00;102310.81;;;8.18
55038;BMP280;40937;53.594;10.034;2023-04-07T16:40:29;102308.13;;;8.27
55038;BMP280;40937;53.594;10.034;2023-04-07T16:42:56;102307.31;;;8.26
55038;BMP280;40937;53.594;10.034;2023-04-07T16:45:25;102316.91;;;8.19
55038;BMP280;40937;53.594;10.034;2023-04-07T16:47:52;102316.75;;;8.12
55038;BMP280;40937;53.594;10.034;2023-04-07T16:50:19;102324.69;;;8.04
55038;BMP280;40937;53.594;10.034;2023-04-07T16:52:46;102325.28;;;7.91
55038;BMP280;40937;53.594;10.034;2023-04-07T16:55:14;102330.53;;;7.91
55038;BMP280;40937;53.594;10.034;2023-04-07T16:57:41;102335.28;;;7.96
55038;BMP280;40937;53.594;10.034;2023-04-07T17:00:09;102332.44;;;7.74
55038;BMP280;40937;53.594;10.034;2023-04-07T17:02:38;102331.66;;;7.89
55038;BMP280;40937;53.594;10.034;2023-04-07T17:05:05;102339.38;;;7.90
55038;BMP280;40937;53.594;10.034;2023-04-07T17:07:33;102347.75;;;7.94
55038;BMP280;40937;53.594;10.034;2023-04-07T17:10:00;102353.31;;;7.99
55038;BMP280;40937;53.594;10.034;2023-04-07T17:12:27;102354.00;;;7.93
55038;BMP280;40937;53.594;10.034;2023-04-07T17:14:54;102350.19;;;7.64
55038;BMP280;40937;53.594;10.034;2023-04-07T17:17:21;102353.19;;;7.53